Time;durP1;ratioP1;P1;durP2;ratioP2;P2;SDS_P1;SDS_P2;PMS_P1;PMS_P2;Temp;Humidity;BMP_temperature;BMP_pressure;BME280_temperature;BME280_humidity;BME280_pressure;Samples;Min_cycle;Max_cycle;Signal;HPM_P1;HPM_P2
2021/01/01 00:03:12;;;;;;;30.63;13.97;;;;;;;-0.52;87.74;97885.33;249763;1151;22998;-78
2021/01/01 00:08:15;;;;;;;25.70;11.90;;;;;;;-0.55;87.38;97883.97;249744;1156;23522;-78
2021/01/01 00:13:17;;;;;;;40.87;16.63;;;;;;;-0.58;86.92;97883.66;249722;1150;25964;-79
2021/01/01 00:18:19;;;;;;;36.27;16.60;;;;;;;-0.50;87.55;97880.64;249739;1151;23390;-77
2021/01/01 00:23:21;;;;;;;39.17;17.27;;;;;;;-0.45;87.47;97893.07;249750;1151;23372;-78
2021/01/01 00:28:23;;;;;;;33.40;15.15;;;;;;;-0.42;87.61;97892.59;249855;1151;22952;-78
2021/01/01 00:33:25;;;;;;;33.23;15.77;;;;;;;-0.41;87.74;97899.45;249668;1150;22942;-77
2021/01/01 00:38:27;;;;;;;33.27;15.30;;;;;;;-0.48;86.51;97896.97;249758;1155;22970;-76
2021/01/01 00:43:29;;;;;;;37.47;17.97;;;;;;;-0.52;86.85;97909.00;249821;1150;23062;-79
2021/01/01 00:48:31;;;;;;;40.45;18.35;;;;;;;-0.48;87.33;97917.23;249824;1151;23068;-78
2021/01/01 00:53:34;;;;;;;48.60;20.47;;;;;;;-0.50;87.49;97916.66;249786;1150;22994;-80
2021/01/01 00:58:36;;;;;;;44.17;19.93;;;;;;;-0.49;87.22;97918.27;249866;1156;22970;-77
2021/01/01 01:03:38;;;;;;;34.97;15.20;;;;;;;-0.58;86.51;97915.23;249935;1151;22957;-77
2021/01/01 01:08:43;;;;;;;27.17;13.77;;;;;;;-0.64;86.86;97918.78;249749;1155;23104;-77
2021/01/01 01:13:45;;;;;;;27.90;13.07;;;;;;;-0.74;87.80;97916.77;250106;1156;22981;-78
2021/01/01 01:18:47;;;;;;;40.30;17.05;;;;;;;-0.74;87.35;97914.14;249777;1151;22972;-76
2021/01/01 01:23:51;;;;;;;44.43;18.47;;;;;;;-0.66;87.74;97920.87;249893;1156;23049;-77
2021/01/01 01:28:53;;;;;;;44.77;19.33;;;;;;;-0.63;87.85;97921.20;249837;1150;22973;-80
2021/01/01 01:33:55;;;;;;;43.27;18.60;;;;;;;-0.59;87.91;97916.25;249804;1150;22937;-78
2021/01/01 01:38:57;;;;;;;48.25;19.80;;;;;;;-0.56;87.31;97913.14;249998;1151;23028;-78
2021/01/01 01:44:00;;;;;;;42.57;20.10;;;;;;;-0.53;87.26;97918.74;249819;1155;22908;-79
2021/01/01 01:49:02;;;;;;;32.60;14.17;;;;;;;-0.53;86.86;97926.64;250128;1149;26404;-78
2021/01/01 01:54:05;;;;;;;46.85;20.80;;;;;;;-0.56;87.23;97929.75;249952;1151;22964;-77
2021/01/01 01:59:10;;;;;;;34.77;17.37;;;;;;;-0.56;86.73;97923.67;249954;1151;22928;-77
2021/01/01 02:04:12;;;;;;;42.13;18.23;;;;;;;-0.49;87.28;97928.79;249824;1151;23106;-78
2021/01/01 02:09:14;;;;;;;36.87;16.00;;;;;;;-0.43;87.94;97927.86;249461;1151;22933;-79
2021/01/01 02:14:17;;;;;;;35.55;15.80;;;;;;;-0.48;87.32;97927.77;249788;1156;22945;-78
2021/01/01 02:19:19;;;;;;;44.00;18.03;;;;;;;-0.49;86.83;97934.05;249796;1150;23046;-83
2021/01/01 02:24:21;;;;;;;33.10;14.55;;;;;;;-0.49;87.41;97923.52;249922;1151;22944;-79
2021/01/01 02:29:23;;;;;;;40.35;16.80;;;;;;;-0.47;87.93;97924.89;249870;1151;22939;-79
2021/01/01 02:34:26;;;;;;;42.40;17.33;;;;;;;-0.46;87.78;97925.67;249959;1150;22956;-78
2021/01/01 02:39:28;;;;;;;32.85;15.25;;;;;;;-0.41;87.74;97912.61;249689;1151;22913;-79
2021/01/01 02:44:30;;;;;;;39.13;14.80;;;;;;;-0.38;88.27;97917.39;249948;1156;22980;-79
2021/01/01 02:49:33;;;;;;;26.65;12.00;;;;;;;-0.34;87.05;97918.52;249778;1151;22944;-79
2021/01/01 02:54:35;;;;;;;27.23;12.17;;;;;;;-0.31;87.75;97923.30;249800;1151;22944;-77
2021/01/01 02:59:37;;;;;;;37.47;15.80;;;;;;;-0.48;87.10;97927.77;249933;1151;23059;-79
2021/01/01 03:04:39;;;;;;;35.20;14.53;;;;;;;-0.47;87.45;97919.63;249917;1151;22952;-82
2021/01/01 03:09:41;;;;;;;35.20;15.33;;;;;;;-0.45;87.13;97927.28;249915;1151;22944;-78
2021/01/01 03:14:43;;;;;;;42.50;17.67;;;;;;;-0.38;88.16;97927.92;249889;1150;23135;-78
2021/01/01 03:19:45;;;;;;;44.07;15.43;;;;;;;-0.38;87.43;97927.92;249650;1151;22970;-78
2021/01/01 03:24:47;;;;;;;45.23;17.13;;;;;;;-0.36;87.90;97917.97;249836;1156;22974;-77
2021/01/01 03:29:50;;;;;;;43.80;17.25;;;;;;;-0.29;87.61;97918.61;249885;1151;22948;-80
2021/01/01 03:34:54;;;;;;;49.57;19.43;;;;;;;-0.21;87.95;97920.85;249968;1151;23107;-78
2021/01/01 03:39:56;;;;;;;48.53;18.03;;;;;;;-0.22;87.73;97913.98;249821;1151;22932;-76
2021/01/01 03:44:59;;;;;;;49.80;18.27;;;;;;;-0.25;87.64;97914.47;249529;1151;22953;-78
2021/01/01 03:50:01;;;;;;;52.45;20.15;;;;;;;-0.20;87.54;97913.74;249833;1151;23001;-78
2021/01/01 03:55:05;;;;;;;48.10;19.30;;;;;;;-0.21;86.68;97907.69;249839;1150;26107;-78
2021/01/01 04:00:08;;;;;;;64.80;23.40;;;;;;;-0.23;87.50;97896.59;249659;1151;22949;-79
2021/01/01 04:05:16;;;;;;;54.13;22.53;;;;;;;-0.21;87.75;97905.06;249827;1150;26401;-78
2021/01/01 04:10:18;;;;;;;58.47;23.00;;;;;;;-0.18;86.91;97914.31;249614;1151;22951;-85
2021/01/01 04:15:20;;;;;;;46.00;19.17;;;;;;;-0.28;87.03;97908.87;249954;1151;22942;-76
2021/01/01 04:20:24;;;;;;;48.00;19.43;;;;;;;-0.41;86.84;97912.61;249830;1151;22948;-77
2021/01/01 04:25:26;;;;;;;64.95;26.60;;;;;;;-0.41;87.67;97902.88;250056;1150;22953;-79
2021/01/01 04:30:28;;;;;;;57.77;24.60;;;;;;;-0.29;88.30;97908.08;249826;1149;22958;-79
2021/01/01 04:35:30;;;;;;;68.97;25.67;;;;;;;-0.24;88.14;97907.36;249472;1151;22921;-82
2021/01/01 04:40:33;;;;;;;66.90;24.35;;;;;;;-0.21;87.58;97914.77;249875;1150;23226;-78
2021/01/01 04:45:35;;;;;;;63.00;23.93;;;;;;;-0.18;87.93;97903.78;249999;1151;22970;-80
2021/01/01 04:50:38;;;;;;;61.05;23.75;;;;;;;-0.15;88.06;97915.65;249986;1151;22951;-78
2021/01/01 04:55:40;;;;;;;61.60;23.87;;;;;;;-0.13;87.39;97906.48;249936;1151;23102;-79
2021/01/01 05:00:42;;;;;;;65.07;25.80;;;;;;;-0.09;87.66;97918.13;249908;1151;22973;-82
2021/01/01 05:05:51;;;;;;;58.67;23.47;;;;;;;-0.04;87.76;97917.42;249968;1156;22919;-78
2021/01/01 05:10:53;;;;;;;68.27;25.00;;;;;;;0.01;88.05;97921.97;249945;1151;22957;-79
2021/01/01 05:15:55;;;;;;;76.50;26.07;;;;;;;0.01;88.02;97920.12;249792;1151;22946;-78
2021/01/01 05:20:58;;;;;;;61.75;25.70;;;;;;;0.01;87.31;97922.75;249782;1150;23116;-79
2021/01/01 05:26:12;;;;;;;62.70;25.15;;;;;;;0.05;87.20;97913.34;249868;1151;22933;-77
2021/01/01 05:31:32;;;;;;;69.83;25.57;;;;;;;0.04;88.32;97911.73;250025;1149;23062;-78
2021/01/01 05:36:38;;;;;;;71.17;26.50;;;;;;;0.03;88.06;97928.59;249768;1151;22929;-78
2021/01/01 05:41:43;;;;;;;60.80;23.40;;;;;;;0.06;88.14;97943.13;249858;1151;22936;-78
2021/01/01 05:47:05;;;;;;;40.35;17.00;;;;;;;-0.02;87.60;97949.57;249859;1150;26363;-77
2021/01/01 05:52:18;;;;;;;49.10;20.57;;;;;;;-0.11;87.66;97943.09;249852;1150;23116;-77
2021/01/01 05:57:21;;;;;;;49.33;19.67;;;;;;;-0.12;87.39;97928.36;249743;1156;22944;-78
2021/01/01 06:02:23;;;;;;;47.03;20.43;;;;;;;-0.10;87.75;97934.17;250000;1151;24851;-77
2021/01/01 06:07:28;;;;;;;51.63;19.70;;;;;;;-0.12;87.73;97938.89;249837;1156;22992;-77
2021/01/01 06:12:34;;;;;;;50.23;21.10;;;;;;;-0.20;87.19;97938.25;249922;1149;22933;-78
2021/01/01 06:17:49;;;;;;;44.63;19.80;;;;;;;-0.22;87.30;97935.04;249935;1151;22923;-78
2021/01/01 06:23:02;;;;;;;36.33;15.00;;;;;;;-0.26;87.58;97944.45;249874;1151;23074;-78
2021/01/01 06:28:04;;;;;;;60.45;23.10;;;;;;;-0.29;87.43;97944.93;250060;1151;23031;-78
2021/01/01 06:33:07;;;;;;;36.27;16.00;;;;;;;-0.28;87.60;97930.74;249821;1149;25989;-79
2021/01/01 06:38:09;;;;;;;52.27;22.73;;;;;;;-0.32;87.40;97934.07;250429;1150;23038;-78
2021/01/01 06:43:11;;;;;;;53.60;21.40;;;;;;;-0.35;86.75;97941.42;250240;1151;23052;-76
2021/01/01 06:48:29;;;;;;;55.20;22.27;;;;;;;-0.32;88.15;97950.67;249908;1156;23055;-78
2021/01/01 06:53:31;;;;;;;47.97;20.17;;;;;;;-0.26;87.61;97946.30;249755;1150;22956;-78
2021/01/01 06:58:33;;;;;;;45.03;19.40;;;;;;;-0.24;87.76;97949.47;249745;1156;24615;-78
2021/01/01 07:03:37;;;;;;;47.25;19.40;;;;;;;-0.19;87.83;97955.62;249792;1151;22942;-78
2021/01/01 07:08:42;;;;;;;61.50;25.07;;;;;;;-0.16;87.25;97954.34;250051;1156;23146;-78
2021/01/01 07:13:45;;;;;;;47.55;20.30;;;;;;;-0.13;87.25;97953.08;249912;1151;22957;-78
2021/01/01 07:18:49;;;;;;;39.03;16.37;;;;;;;-0.12;86.86;97952.84;249905;1150;22919;-81
2021/01/01 07:23:52;;;;;;;47.87;18.47;;;;;;;-0.14;87.40;97952.30;249806;1150;22971;-76
2021/01/01 07:28:55;;;;;;;36.13;15.97;;;;;;;-0.09;87.36;97960.25;249722;1151;22889;-77
2021/01/01 07:34:07;;;;;;;39.85;19.10;;;;;;;-0.09;87.67;97962.09;249870;1150;22937;-76
2021/01/01 07:39:09;;;;;;;59.35;22.25;;;;;;;-0.03;87.42;97969.84;249963;1150;23048;-80
2021/01/01 07:44:11;;;;;;;55.30;22.73;;;;;;;0.09;87.78;97961.86;249738;1150;23001;-78
2021/01/01 07:49:13;;;;;;;55.87;23.27;;;;;;;0.18;87.37;97962.24;249827;1150;22934;-78
2021/01/01 07:54:15;;;;;;;51.13;19.77;;;;;;;0.19;87.87;97957.80;249918;1150;22948;-77
2021/01/01 07:59:18;;;;;;;60.67;23.97;;;;;;;0.26;87.22;97976.86;249945;1151;23109;-79
2021/01/01 08:04:22;;;;;;;60.77;24.00;;;;;;;0.31;87.79;97971.68;249866;1151;24542;-76
2021/01/01 08:09:24;;;;;;;57.63;24.30;;;;;;;0.36;87.19;97977.00;250261;1155;23070;-78
2021/01/01 08:14:26;;;;;;;34.43;15.43;;;;;;;0.35;86.80;97978.06;249901;1150;23100;-78
2021/01/01 08:19:45;;;;;;;47.08;19.48;;;;;;;0.31;86.98;97984.85;250335;1150;23021;-77
2021/01/01 08:24:53;;;;;;;41.03;18.90;;;;;;;0.38;87.72;97985.48;250027;1151;22940;-78
2021/01/01 08:29:56;;;;;;;48.65;20.75;;;;;;;0.51;87.25;97997.52;249882;1151;22964;-79
2021/01/01 08:34:59;;;;;;;45.87;20.37;;;;;;;0.61;87.46;98005.56;249789;1151;22964;-76
2021/01/01 08:40:10;;;;;;;50.17;20.27;;;;;;;0.62;87.42;98006.38;249969;1150;22994;-79
2021/01/01 08:45:12;;;;;;;54.63;22.52;;;;;;;0.64;86.81;98006.92;249894;1151;22946;-79
2021/01/01 08:50:18;;;;;;;45.17;20.43;;;;;;;0.67;86.52;98009.06;250008;1156;22970;-76
2021/01/01 08:55:20;;;;;;;60.53;21.17;;;;;;;0.66;86.30;98010.13;249802;1151;23001;-78
2021/01/01 09:00:23;;;;;;;55.27;22.73;;;;;;;0.71;86.46;98012.81;249722;1156;23460;-78
2021/01/01 09:05:27;;;;;;;41.47;19.50;;;;;;;0.73;86.26;98015.20;249936;1151;22944;-78
2021/01/01 09:10:30;;;;;;;49.47;20.60;;;;;;;0.73;86.20;98015.20;249911;1155;23103;-78
2021/01/01 09:15:32;;;;;;;46.10;19.10;;;;;;;0.71;86.16;98023.36;249546;1151;22918;-77
2021/01/01 09:20:40;;;;;;;55.40;23.63;;;;;;;0.77;86.24;98024.23;250259;1156;23563;-78
2021/01/01 09:25:42;;;;;;;54.70;24.47;;;;;;;0.83;86.04;98021.42;250100;1150;22910;-78
2021/01/01 09:30:49;;;;;;;64.57;25.23;;;;;;;0.86;85.82;98014.88;249695;1151;23216;-77
2021/01/01 09:35:51;;;;;;;51.53;23.47;;;;;;;1.01;87.12;98028.27;249646;1149;25976;-78
2021/01/01 09:40:53;;;;;;;46.97;21.27;;;;;;;1.09;86.15;98020.95;250193;1152;22942;-77
2021/01/01 09:45:56;;;;;;;30.90;14.10;;;;;;;1.16;86.29;98019.75;250270;1148;23109;-77
2021/01/01 09:50:59;;;;;;;56.40;23.93;;;;;;;1.18;85.62;98022.92;250322;1147;26769;-80
2021/01/01 09:56:01;;;;;;;60.50;25.25;;;;;;;1.18;85.19;98019.50;250347;1148;22908;-79
2021/01/01 10:01:04;;;;;;;62.60;27.40;;;;;;;1.23;85.98;98024.03;250446;1152;22988;-79
2021/01/01 10:06:06;;;;;;;49.90;20.43;;;;;;;1.30;86.37;98022.00;250088;1147;22982;-78
2021/01/01 10:11:14;;;;;;;59.00;25.90;;;;;;;1.45;86.12;98034.59;250142;1152;22926;-80
2021/01/01 10:16:16;;;;;;;48.05;22.50;;;;;;;1.49;85.36;98028.56;250173;1147;22936;-78
2021/01/01 10:21:19;;;;;;;54.77;23.60;;;;;;;1.45;85.70;98024.03;250303;1148;22958;-79
2021/01/01 10:26:22;;;;;;;50.80;23.95;;;;;;;1.57;85.19;98005.41;250242;1148;23439;-78
2021/01/01 10:31:24;;;;;;;42.97;21.73;;;;;;;1.54;84.61;98017.28;250174;1152;22995;-78
2021/01/01 10:36:27;;;;;;;55.85;26.00;;;;;;;1.50;84.60;98014.33;250057;1147;22970;-77
2021/01/01 10:41:29;;;;;;;42.03;18.90;;;;;;;1.56;84.30;98014.39;250100;1152;23112;-78
2021/01/01 10:46:31;;;;;;;50.03;23.87;;;;;;;1.53;84.56;97999.84;250286;1148;22928;-79
2021/01/01 10:51:33;;;;;;;43.87;20.63;;;;;;;1.63;84.89;97999.93;250211;1148;23020;-76
2021/01/01 10:56:35;;;;;;;60.30;25.40;;;;;;;1.65;84.39;97999.68;250207;1148;22991;-77
2021/01/01 11:01:59;;;;;;;51.53;24.97;;;;;;;1.72;84.50;98000.27;250109;1147;26024;-78
2021/01/01 11:07:21;;;;;;;41.05;21.35;;;;;;;1.79;84.69;98002.72;250142;1148;22971;-78
2021/01/01 11:12:24;;;;;;;46.90;19.80;;;;;;;1.76;83.78;98003.23;250333;1153;22950;-78
2021/01/01 12:27:21;;;;;;;78.00;34.27;;;;;;;1.55;84.67;98000.38;250391;1147;22992;-78
2021/01/01 12:32:23;;;;;;;63.33;30.37;;;;;;;1.69;85.25;97993.67;250015;1149;22942;-78
2021/01/01 12:37:27;;;;;;;61.63;27.80;;;;;;;1.82;84.91;97992.47;250497;1153;23056;-78
2021/01/01 12:42:30;;;;;;;77.30;31.75;;;;;;;1.83;84.82;97991.42;250075;1148;23106;-78
2021/01/01 12:47:33;;;;;;;69.17;31.43;;;;;;;1.81;84.67;97990.87;250066;1153;22959;-79
2021/01/01 12:52:35;;;;;;;67.20;30.93;;;;;;;1.72;84.84;97984.43;250309;1148;23551;-78
2021/01/01 12:57:37;;;;;;;69.57;32.27;;;;;;;1.70;84.98;97987.33;250280;1153;23106;-77
2021/01/01 13:02:39;;;;;;;79.37;32.47;;;;;;;1.70;84.46;97983.89;250322;1147;26398;-78
2021/01/01 13:07:42;;;;;;;73.63;32.10;;;;;;;1.67;84.40;97995.75;250205;1148;23015;-76
2021/01/01 13:12:44;;;;;;;73.37;32.30;;;;;;;1.64;84.66;98003.39;250361;1148;22936;-81
2021/01/01 13:17:46;;;;;;;57.05;26.85;;;;;;;1.53;84.31;98003.27;250382;1147;22964;-77
2021/01/01 13:22:52;;;;;;;79.07;36.40;;;;;;;1.41;84.43;98004.45;250418;1147;23396;-79
2021/01/01 13:27:54;;;;;;;91.10;35.97;;;;;;;1.28;84.93;98005.63;250185;1147;27695;-77
2021/01/01 13:32:56;;;;;;;82.00;35.17;;;;;;;1.13;84.35;98016.79;250188;1148;23334;-76
2021/01/01 13:37:59;;;;;;;87.70;37.50;;;;;;;1.02;84.34;98032.50;249936;1151;22938;-80
2021/01/01 13:43:01;;;;;;;59.13;26.17;;;;;;;0.91;85.03;98029.95;250088;1148;23131;-78
2021/01/01 13:48:04;;;;;;;91.00;33.83;;;;;;;0.76;84.62;98028.72;250203;1153;22973;-76
2021/01/01 13:53:06;;;;;;;82.43;32.77;;;;;;;0.68;85.01;98037.82;250201;1147;23015;-78
2021/01/01 13:58:09;;;;;;;74.00;32.70;;;;;;;0.64;85.20;98030.64;250074;1153;22951;-79
2021/01/01 14:03:12;;;;;;;83.55;35.55;;;;;;;0.62;85.02;98038.01;250192;1147;22964;-79
2021/01/01 14:08:18;;;;;;;98.83;38.37;;;;;;;0.64;85.35;98035.92;250279;1152;22968;-77
2021/01/01 14:13:21;;;;;;;94.90;37.57;;;;;;;0.74;86.40;98040.53;250126;1148;25976;-78
2021/01/01 14:18:24;;;;;;;86.43;37.10;;;;;;;0.78;85.81;98049.56;250490;1148;22950;-78
2021/01/01 14:23:26;;;;;;;78.17;34.07;;;;;;;0.80;86.38;98050.14;250506;1148;22935;-78
2021/01/01 14:28:28;;;;;;;92.75;36.20;;;;;;;0.76;85.45;98060.35;250132;1147;22939;-79
2021/01/01 14:33:30;;;;;;;92.30;36.90;;;;;;;0.69;85.48;98054.45;250288;1147;22964;-79
2021/01/01 14:38:33;;;;;;;84.67;37.43;;;;;;;0.62;85.58;98054.61;250155;1148;22960;-79
2021/01/01 14:43:36;;;;;;;90.77;37.47;;;;;;;0.52;85.30;98054.47;250395;1148;22964;-78
2021/01/01 14:48:38;;;;;;;96.93;39.50;;;;;;;0.44;85.75;98055.66;250432;1148;22974;-79
2021/01/01 14:53:47;;;;;;;92.70;40.30;;;;;;;0.41;86.46;98064.05;250483;1148;23004;-79
2021/01/01 14:58:50;;;;;;;101.60;41.87;;;;;;;0.37;86.02;98068.19;250407;1148;22919;-80
2021/01/01 15:03:52;;;;;;;90.30;34.30;;;;;;;0.32;86.65;98074.19;250339;1147;22908;-78
2021/01/01 15:08:54;;;;;;;101.33;40.23;;;;;;;0.28;86.80;98086.23;250136;1152;22956;-78
2021/01/01 15:13:57;;;;;;;96.00;40.63;;;;;;;0.26;86.49;98088.30;250201;1147;22946;-78
2021/01/01 15:18:59;;;;;;;103.70;41.20;;;;;;;0.28;86.61;98085.42;250347;1152;23183;-80
2021/01/01 15:24:04;;;;;;;102.85;40.30;;;;;;;0.29;86.83;98087.81;250538;1148;22933;-78
2021/01/01 15:29:06;;;;;;;108.95;43.15;;;;;;;0.29;87.49;98082.55;250224;1148;22935;-76
2021/01/01 15:34:08;;;;;;;95.57;39.13;;;;;;;0.31;87.02;98088.39;250276;1147;26392;-82
2021/01/01 15:39:10;;;;;;;98.60;42.30;;;;;;;0.34;86.99;98089.75;250301;1148;23034;-87
2021/01/01 15:44:13;;;;;;;112.27;45.40;;;;;;;0.28;87.22;98094.14;250364;1148;22977;-77
2021/01/01 15:49:15;;;;;;;122.70;49.50;;;;;;;0.26;87.12;98092.78;250468;1148;22962;-78
2021/01/01 15:54:20;;;;;;;112.20;45.80;;;;;;;0.25;86.52;98099.89;250323;1148;22938;-76
2021/01/01 15:59:23;;;;;;;98.93;43.50;;;;;;;0.22;87.05;98096.92;250042;1152;22953;-78
2021/01/01 16:04:25;;;;;;;96.57;38.80;;;;;;;0.10;86.98;98092.52;250129;1148;22958;-78
2021/01/01 16:09:27;;;;;;;106.30;44.77;;;;;;;0.05;87.00;98102.16;250573;1152;22886;-81
2021/01/01 16:14:29;;;;;;;99.30;41.67;;;;;;;-0.03;86.35;98100.69;251090;1148;23088;-77
2021/01/01 16:19:31;;;;;;;110.65;45.40;;;;;;;-0.08;86.71;98103.25;250121;1148;23615;-78
2021/01/01 16:24:33;;;;;;;102.47;42.47;;;;;;;-0.18;87.17;98109.91;250363;1148;22957;-79
2021/01/01 16:29:38;;;;;;;92.37;38.13;;;;;;;-0.25;86.51;98103.17;250114;1151;22914;-78
2021/01/01 16:34:40;;;;;;;92.57;39.47;;;;;;;-0.29;86.93;98118.66;250334;1148;22964;-82
2021/01/01 16:39:43;;;;;;;88.03;38.00;;;;;;;-0.31;87.29;98109.38;250292;1151;23404;-79
2021/01/01 16:44:45;;;;;;;102.77;37.50;;;;;;;-0.36;87.29;98117.98;250152;1147;22945;-79
2021/01/01 16:49:48;;;;;;;85.53;37.70;;;;;;;-0.42;87.50;98124.98;250619;1153;23074;-79
2021/01/01 16:54:50;;;;;;;102.97;41.87;;;;;;;-0.50;87.25;98121.89;250192;1147;23043;-78
2021/01/01 16:59:52;;;;;;;85.70;37.25;;;;;;;-0.52;87.50;98122.12;250529;1153;22954;-77
2021/01/01 17:04:54;;;;;;;101.45;38.05;;;;;;;-0.63;87.07;98122.95;250341;1152;22936;-80
2021/01/01 17:09:57;;;;;;;95.95;38.75;;;;;;;-0.70;87.49;98129.15;250450;1153;22988;-79
2021/01/01 17:15:00;;;;;;;96.03;40.20;;;;;;;-0.71;88.03;98132.01;250902;1147;22951;-77
2021/01/01 17:20:03;;;;;;;105.80;41.15;;;;;;;-0.74;87.69;98135.08;250689;1152;22941;-77
2021/01/01 17:25:06;;;;;;;85.10;37.30;;;;;;;-0.73;87.87;98134.05;250959;1148;22944;-82
2021/01/01 17:30:09;;;;;;;97.17;39.33;;;;;;;-0.63;87.50;98146.63;251747;1148;22961;-85
2021/01/01 17:35:12;;;;;;;94.13;38.83;;;;;;;-0.52;88.16;98153.70;250779;1148;23641;-78
2021/01/01 17:40:15;;;;;;;92.63;38.90;;;;;;;-0.46;88.41;98149.34;250641;1153;23071;-80
2021/01/01 17:45:17;;;;;;;93.03;35.43;;;;;;;-0.38;88.05;98160.34;250746;1148;23106;-79
2021/01/01 17:50:41;;;;;;;80.70;34.97;;;;;;;-0.28;88.20;98169.45;250520;1150;23103;-80
2021/01/01 17:55:43;;;;;;;70.40;31.07;;;;;;;-0.26;87.89;98173.45;250592;1147;26357;-78
2021/01/01 18:00:50;;;;;;;76.80;31.40;;;;;;;-0.23;87.50;98166.93;251186;1153;23383;-80
2021/01/01 18:05:52;;;;;;;70.35;28.40;;;;;;;-0.16;87.80;98179.97;251111;1147;23029;-79
2021/01/01 18:10:56;;;;;;;60.65;25.40;;;;;;;-0.14;87.57;98181.34;250681;1149;23011;-79
2021/01/01 18:15:59;;;;;;;72.60;29.03;;;;;;;-0.12;87.36;98183.73;250426;1148;22922;-81
2021/01/01 18:21:02;;;;;;;64.90;28.50;;;;;;;-0.07;87.92;98183.82;250559;1152;22926;-80
2021/01/01 18:26:10;;;;;;;80.97;33.43;;;;;;;0.01;87.71;98193.20;250275;1147;22939;-79
2021/01/01 18:31:14;;;;;;;67.83;28.60;;;;;;;0.08;88.27;98201.77;250405;1148;25982;-78
2021/01/01 18:36:23;;;;;;;65.47;27.93;;;;;;;0.14;88.13;98201.64;250434;1148;22943;-79
2021/01/01 18:41:53;;;;;;;63.73;26.53;;;;;;;0.15;87.38;98202.42;250544;1148;22974;-78
2021/01/01 18:47:02;;;;;;;62.10;26.20;;;;;;;0.17;87.51;98197.73;250619;1146;22951;-80
2021/01/01 18:52:04;;;;;;;61.80;26.47;;;;;;;0.16;87.53;98201.40;250508;1148;25210;-80
2021/01/01 18:57:16;;;;;;;56.17;26.87;;;;;;;0.22;87.62;98216.25;250319;1148;22967;-79
2021/01/01 19:02:24;;;;;;;42.93;18.87;;;;;;;0.25;87.96;98217.63;250831;1152;22959;-78
2021/01/01 19:07:36;;;;;;;64.10;28.70;;;;;;;0.16;87.58;98233.01;250022;1148;22954;-79
2021/01/01 19:12:40;;;;;;;61.60;26.75;;;;;;;0.09;86.69;98241.03;250158;1155;22942;-77
2021/01/01 19:17:55;;;;;;;46.33;20.17;;;;;;;0.08;87.30;98234.16;250136;1153;22980;-76
2021/01/01 19:23:15;;;;;;;68.45;30.60;;;;;;;0.02;87.10;98244.84;250208;1148;22978;-79
2021/01/01 19:28:20;;;;;;;62.27;28.13;;;;;;;-0.05;87.30;98255.50;250349;1148;22970;-78
2021/01/01 19:33:46;;;;;;;65.30;27.53;;;;;;;-0.10;87.56;98250.13;251711;1148;23729;-80
2021/01/01 19:39:28;;;;;;;65.33;29.37;;;;;;;-0.13;88.15;98250.59;250338;1149;22992;-79
2021/01/01 19:45:04;;;;;;;61.92;27.65;;;;;;;-0.15;87.04;98250.82;250575;1148;22925;-78
2021/01/01 19:50:16;;;;;;;58.20;26.80;;;;;;;-0.28;87.17;98254.50;250428;1148;25987;-79
2021/01/01 19:55:34;;;;;;;58.93;25.50;;;;;;;-0.44;87.34;98258.61;250980;1148;23073;-80
2021/01/01 20:00:48;;;;;;;61.73;28.03;;;;;;;-0.55;88.09;98262.05;250583;1148;22932;-79
2021/01/01 20:05:58;;;;;;;59.47;26.57;;;;;;;-0.62;87.66;98262.15;250901;1148;22935;-77
2021/01/01 20:11:03;;;;;;;66.50;28.45;;;;;;;-0.64;88.39;98268.66;250569;1148;23050;-79
2021/01/01 20:16:07;;;;;;;73.53;32.63;;;;;;;-0.64;88.19;98280.01;251026;1147;26411;-81
2021/01/01 20:21:11;;;;;;;77.17;33.47;;;;;;;-0.58;87.98;98279.08;251345;1148;23024;-81
2021/01/01 20:26:16;;;;;;;80.77;33.87;;;;;;;-0.57;87.97;98285.17;251305;1148;23025;-78
2021/01/01 20:31:21;;;;;;;68.80;29.30;;;;;;;-0.55;87.97;98283.09;251939;1148;23017;-79
2021/01/01 20:36:31;;;;;;;69.55;31.30;;;;;;;-0.51;88.13;98281.61;251331;1148;25912;-80
2021/01/01 20:41:46;;;;;;;70.07;31.30;;;;;;;-0.53;88.24;98296.84;250757;1148;22961;-81
2021/01/01 20:57:12;;;;;;;75.03;33.70;;;;;;;-0.53;88.22;98313.42;252049;1148;23100;-80
2021/01/01 21:02:18;;;;;;;87.55;39.35;;;;;;;-0.54;88.40;98313.65;252100;1148;22964;-82
2021/01/01 21:07:27;;;;;;;69.47;32.87;;;;;;;-0.55;88.58;98320.72;251739;1151;22912;-80
2021/01/01 21:12:55;;;;;;;77.57;35.27;;;;;;;-0.54;88.59;98318.91;250955;1150;22935;-79
2021/01/01 21:18:14;;;;;;;76.93;32.30;;;;;;;-0.54;87.71;98327.59;250821;1152;24566;-80
2021/01/01 21:23:55;;;;;;;84.00;35.17;;;;;;;-0.55;88.16;98323.35;251039;1152;23118;-81
2021/01/01 21:29:13;;;;;;;94.47;39.00;;;;;;;-0.53;89.16;98325.78;250656;1149;22922;-84
2021/01/01 21:34:43;;;;;;;87.30;35.97;;;;;;;-0.56;88.30;98327.03;251223;1153;23432;-80
2021/01/01 21:40:11;;;;;;;83.17;36.17;;;;;;;-0.57;88.60;98328.05;250642;1148;22946;-80
2021/01/01 21:45:37;;;;;;;89.40;36.50;;;;;;;-0.56;87.93;98332.30;251629;1152;22937;-80
2021/01/01 21:50:41;;;;;;;81.67;32.97;;;;;;;-0.55;87.85;98325.98;250552;1148;22899;-81
2021/01/01 21:55:46;;;;;;;89.60;37.13;;;;;;;-0.56;87.87;98334.93;251222;1148;23031;-79
2021/01/01 22:00:48;;;;;;;86.37;37.07;;;;;;;-0.52;87.91;98327.36;250762;1148;22924;-78
2021/01/01 22:05:50;;;;;;;94.57;38.97;;;;;;;-0.46;88.44;98330.92;250492;1155;22945;-79
2021/01/01 22:10:59;;;;;;;97.27;38.67;;;;;;;-0.43;88.28;98330.48;250807;1148;25919;-79
2021/01/01 22:16:01;;;;;;;88.93;37.63;;;;;;;-0.39;88.45;98336.90;250499;1148;22978;-78
2021/01/01 22:21:05;;;;;;;90.97;38.10;;;;;;;-0.35;88.03;98338.02;250538;1148;22906;-79
2021/01/01 22:26:07;;;;;;;80.90;34.87;;;;;;;-0.33;88.12;98327.30;250794;1148;22934;-79
2021/01/01 22:31:09;;;;;;;83.20;37.20;;;;;;;-0.36;88.49;98329.33;250897;1147;27716;-77
2021/01/01 22:36:13;;;;;;;78.70;36.13;;;;;;;-0.35;87.64;98338.84;250714;1148;23358;-80
2021/01/01 22:41:15;;;;;;;79.73;37.00;;;;;;;-0.32;87.66;98329.69;250735;1148;22980;-78
2021/01/01 22:46:17;;;;;;;70.77;31.37;;;;;;;-0.27;88.63;98335.05;251213;1152;22971;-81
2021/01/01 22:51:20;;;;;;;67.87;31.00;;;;;;;-0.33;87.72;98330.72;251000;1147;22955;-80
2021/01/01 22:56:22;;;;;;;78.07;32.47;;;;;;;-0.33;88.53;98335.98;251144;1151;22970;-82
2021/01/01 23:01:29;;;;;;;73.55;31.20;;;;;;;-0.39;87.38;98339.53;251491;1147;24394;-80
2021/01/01 23:06:33;;;;;;;95.30;36.40;;;;;;;-0.47;87.05;98334.59;252088;1148;22823;-79
2021/01/01 23:11:39;;;;;;;115.00;44.30;;;;;;;-0.51;86.72;98334.23;251139;1148;23042;-80
2021/01/01 23:16:43;;;;;;;96.03;39.60;;;;;;;-0.60;87.77;98338.22;251479;1148;22953;-79
2021/01/01 23:21:52;;;;;;;102.60;40.03;;;;;;;-0.75;86.84;98347.34;251004;1147;22942;-79
2021/01/01 23:27:26;;;;;;;125.20;47.97;;;;;;;-0.85;86.88;98347.09;250680;1148;22970;-78
2021/01/01 23:32:42;;;;;;;150.77;53.50;;;;;;;-0.98;87.27;98348.09;250655;1148;22937;-80
2021/01/01 23:38:13;;;;;;;140.70;52.90;;;;;;;-1.06;87.69;98356.29;251080;1152;23100;-81
2021/01/01 23:43:54;;;;;;;139.77;51.83;;;;;;;-1.15;88.27;98366.28;251151;1147;22946;-79
2021/01/01 23:49:11;;;;;;;130.93;48.00;;;;;;;-1.21;87.26;98370.61;251061;1152;23069;-82
2021/01/01 23:54:20;;;;;;;127.87;46.80;;;;;;;-1.29;88.44;98359.60;251311;1148;22982;-80
2021/01/01 23:59:23;;;;;;;142.67;51.13;;;;;;;-1.33;87.82;98368.95;251063;1147;26088;-78
